Terminal Aerodrome Forecast
Issued by NWS

Home | Current Version | Previous Version | Text Only | Print | Product List | Glossary On
Versions: 1 2 3 4 5 6 7 8 9 10 11 12 13 14 15 16 17 18 19 20 21 22 23 24 25 26 27 28 29 30 31 32
000
FTUS43 KICT 202334
TAFCNU
TAF
KCNU 202334Z 2100/2124 17008KT P6SM SCT020
     FM210400 17006KT 5SM BR OVC025
     FM211000 17007KT 4SM BR OVC012
     FM211400 17011KT 4SM BR OVC012=

USA.gov is the U.S. government's official web portal to all federal, state and local government web resources and services.